Time;durP1;ratioP1;P1;durP2;ratioP2;P2;SDS_P1;SDS_P2;PMS_P1;PMS_P2;Temp;Humidity;BMP_temperature;BMP_pressure;BME280_temperature;BME280_humidity;BME280_pressure;Samples;Min_cycle;Max_cycle;Signal;HPM_P1;HPM_P2
2023/01/10 00:00:44;;;;;;;2.03;1.10;;;17.90;57.90;;;;;;5052437;28;20208;-61
2023/01/10 00:03:10;;;;;;;2.60;1.20;;;17.90;57.90;;;;;;5053409;28;20198;-62
2023/01/10 00:05:36;;;;;;;2.28;1.30;;;17.90;57.90;;;;;;5052773;28;20198;-62
2023/01/10 00:08:02;;;;;;;2.75;1.45;;;17.80;57.80;;;;;;5052264;28;20776;-62
2023/01/10 00:10:28;;;;;;;2.13;1.13;;;17.80;57.80;;;;;;5053262;28;20183;-61
2023/01/10 00:15:38;;;;;;;1.33;1.08;;;17.80;57.80;;;;;;5052766;28;20182;-61
2023/01/10 00:18:03;;;;;;;3.28;1.42;;;17.80;57.80;;;;;;5052920;28;20214;-61
2023/01/10 00:20:29;;;;;;;1.92;1.20;;;17.70;57.80;;;;;;5051971;28;20803;-61
2023/01/10 00:22:54;;;;;;;2.15;1.13;;;17.70;57.70;;;;;;5052658;28;20218;-61
2023/01/10 00:25:20;;;;;;;2.40;1.13;;;17.70;57.80;;;;;;5052487;28;20171;-61
2023/01/10 00:27:56;;;;;;;2.70;1.30;;;17.70;57.80;;;;;;5052004;28;20175;-61
2023/01/10 00:30:22;;;;;;;2.95;1.20;;;17.70;57.80;;;;;;5053095;28;20171;-62
2023/01/10 00:32:47;;;;;;;2.00;1.10;;;17.60;57.70;;;;;;5052446;28;20179;-62
2023/01/10 00:35:13;;;;;;;2.30;1.27;;;17.70;57.70;;;;;;5052127;28;20167;-62
2023/01/10 00:37:39;;;;;;;2.28;1.13;;;17.60;57.70;;;;;;5052268;28;20222;-62
2023/01/10 00:40:09;;;;;;;2.40;1.60;;;17.60;57.70;;;;;;5052863;28;20182;-62
2023/01/10 00:45:23;;;;;;;2.63;1.38;;;17.60;57.70;;;;;;5052890;28;20182;-62
2023/01/10 00:47:49;;;;;;;2.38;1.30;;;17.60;57.80;;;;;;5052289;28;20257;-62
2023/01/10 00:50:15;;;;;;;2.28;1.50;;;17.60;57.90;;;;;;5052148;28;20298;-62
2023/01/10 00:52:40;;;;;;;1.63;1.23;;;17.60;57.70;;;;;;5052508;28;20179;-61
2023/01/10 00:55:06;;;;;;;2.60;1.10;;;17.50;57.70;;;;;;5052844;28;20175;-61
2023/01/10 00:57:32;;;;;;;1.63;1.20;;;17.50;57.60;;;;;;5051524;28;20198;-61
2023/01/10 00:59:57;;;;;;;2.40;1.10;;;17.50;57.60;;;;;;5052636;28;20581;-61
2023/01/10 01:02:23;;;;;;;2.60;1.40;;;17.50;57.60;;;;;;5052079;28;20541;-62
2023/01/10 01:04:48;;;;;;;3.28;1.50;;;17.50;57.60;;;;;;5052163;28;20514;-62
2023/01/10 01:07:14;;;;;;;3.80;1.45;;;17.50;57.50;;;;;;5052626;28;20522;-62
2023/01/10 01:10:25;;;;;;;3.67;1.50;;;17.50;57.50;;;;;;5051561;28;20254;-62
2023/01/10 01:12:25;;;;;;;4.13;1.92;;;17.50;57.60;;;;;;5052273;28;20175;-61
2023/01/10 01:14:50;;;;;;;1.85;1.20;;;17.50;57.60;;;;;;5052010;28;20365;-61
2023/01/10 01:17:17;;;;;;;2.45;1.38;;;17.40;57.50;;;;;;5051812;28;20215;-61
2023/01/10 01:19:42;;;;;;;3.53;1.98;;;17.40;57.50;;;;;;5052107;28;20255;-61
2023/01/10 01:22:08;;;;;;;2.65;1.38;;;17.40;57.50;;;;;;5052496;28;20528;-61
2023/01/10 01:24:34;;;;;;;1.77;1.05;;;17.40;57.50;;;;;;5051519;28;20261;-61
2023/01/10 01:26:59;;;;;;;3.15;1.40;;;17.40;57.50;;;;;;5052551;28;20262;-61
2023/01/10 01:29:25;;;;;;;3.05;1.60;;;17.40;57.50;;;;;;5052241;28;20194;-61
2023/01/10 01:31:50;;;;;;;2.97;1.75;;;17.40;57.40;;;;;;5051492;28;20190;-61
2023/01/10 01:34:16;;;;;;;3.13;1.45;;;17.40;57.40;;;;;;5052384;28;20167;-61
2023/01/10 01:36:41;;;;;;;3.33;1.33;;;17.40;57.40;;;;;;5055257;28;20199;-62
2023/01/10 01:39:07;;;;;;;3.15;1.52;;;17.40;57.40;;;;;;5055254;28;20202;-61
2023/01/10 01:44:17;;;;;;;3.50;1.48;;;17.30;57.40;;;;;;5055856;28;20174;-61
2023/01/10 01:47:06;;;;;;;2.63;1.40;;;17.30;57.40;;;;;;5055008;28;20539;-61
2023/01/10 01:49:34;;;;;;;2.22;1.20;;;17.30;57.40;;;;;;5055410;28;20640;-61
2023/01/10 01:52:02;;;;;;;3.28;1.38;;;17.30;57.40;;;;;;5055012;28;20175;-61
2023/01/10 01:54:27;;;;;;;1.38;1.08;;;17.30;57.40;;;;;;5055593;28;20187;-61
2023/01/10 01:57:01;;;;;;;3.78;1.30;;;17.30;57.40;;;;;;5054046;28;20770;-61
2023/01/10 01:59:32;;;;;;;2.53;1.40;;;17.30;57.40;;;;;;5053845;28;20193;-61
2023/01/10 02:02:02;;;;;;;3.20;1.60;;;17.30;57.40;;;;;;5054429;28;20677;-61
2023/01/10 02:04:30;;;;;;;3.38;1.92;;;17.30;57.30;;;;;;5054399;28;20187;-62
2023/01/10 02:06:56;;;;;;;2.20;1.42;;;17.30;57.40;;;;;;5053295;28;20211;-62
2023/01/10 02:09:42;;;;;;;2.15;1.10;;;17.20;57.30;;;;;;5055582;28;20645;-61
2023/01/10 02:12:08;;;;;;;2.90;1.30;;;17.20;57.30;;;;;;5055417;28;20179;-61
2023/01/10 02:14:33;;;;;;;3.08;1.35;;;17.20;58.00;;;;;;5053291;28;20217;-61
2023/01/10 02:16:59;;;;;;;2.25;1.30;;;17.20;57.40;;;;;;5053865;28;20214;-61
2023/01/10 02:19:50;;;;;;;1.90;1.15;;;17.20;57.40;;;;;;5054928;28;20255;-61
2023/01/10 02:22:21;;;;;;;1.80;1.20;;;17.20;57.40;;;;;;5054031;28;20179;-61
2023/01/10 02:24:51;;;;;;;2.90;1.30;;;17.20;57.40;;;;;;5054885;28;20167;-61
2023/01/10 02:27:31;;;;;;;2.05;1.25;;;17.20;57.40;;;;;;5053159;28;20178;-61
2023/01/10 02:30:05;;;;;;;2.33;1.33;;;17.20;57.30;;;;;;5053694;28;20661;-61
2023/01/10 02:32:36;;;;;;;1.80;1.05;;;17.10;57.40;;;;;;5054709;28;20170;-61
2023/01/10 02:35:07;;;;;;;1.73;1.10;;;17.10;57.30;;;;;;5054273;28;20220;-62
2023/01/10 02:38:15;;;;;;;1.95;1.17;;;17.20;57.40;;;;;;5053263;28;20295;-62
2023/01/10 02:41:14;;;;;;;1.85;1.15;;;17.10;57.30;;;;;;5053274;28;20215;-62
2023/01/10 02:43:50;;;;;;;1.70;1.17;;;17.10;57.30;;;;;;5042527;28;20191;-61
2023/01/10 02:46:23;;;;;;;1.40;1.15;;;17.10;57.30;;;;;;5053348;28;20600;-61
2023/01/10 02:48:51;;;;;;;2.90;1.55;;;17.10;57.30;;;;;;5052106;28;20175;-61
2023/01/10 02:51:20;;;;;;;2.55;1.20;;;17.10;57.40;;;;;;5054686;28;20265;-61
2023/01/10 02:54:19;;;;;;;2.88;1.75;;;17.10;57.30;;;;;;5053302;28;20526;-61
2023/01/10 02:57:23;;;;;;;4.43;1.60;;;17.10;57.30;;;;;;5048547;28;20299;-60
2023/01/10 02:59:54;;;;;;;4.95;1.50;;;17.10;57.30;;;;;;5053723;28;20249;-61
2023/01/10 03:02:35;;;;;;;2.42;1.30;;;17.10;57.30;;;;;;5053604;28;20694;-61
2023/01/10 03:05:14;;;;;;;1.75;1.17;;;17.00;57.20;;;;;;5053272;28;20223;-61
2023/01/10 03:08:08;;;;;;;2.30;1.08;;;17.00;57.20;;;;;;5052974;28;20240;-62
2023/01/10 03:10:55;;;;;;;2.25;1.30;;;17.00;57.20;;;;;;5052207;28;20225;-61
2023/01/10 03:13:33;;;;;;;1.30;1.00;;;17.00;57.20;;;;;;5052933;28;20183;-61
2023/01/10 03:15:59;;;;;;;3.25;1.60;;;17.00;57.10;;;;;;5053131;28;20174;-59
2023/01/10 03:18:34;;;;;;;3.20;1.67;;;17.00;57.20;;;;;;5052388;28;20211;-60
2023/01/10 03:21:01;;;;;;;2.72;1.45;;;17.00;57.20;;;;;;5052748;28;20657;-60
2023/01/10 03:23:27;;;;;;;3.67;1.50;;;17.00;57.20;;;;;;5052097;28;20186;-60
2023/01/10 03:25:52;;;;;;;1.85;1.20;;;17.00;57.10;;;;;;5052486;28;20179;-59
2023/01/10 03:28:24;;;;;;;2.00;1.25;;;17.00;57.10;;;;;;5052601;28;20171;-59
2023/01/10 03:31:12;;;;;;;2.08;1.50;;;16.90;57.10;;;;;;5051792;28;20182;-59
2023/01/10 03:33:38;;;;;;;2.60;1.25;;;17.00;57.10;;;;;;5053507;28;20189;-60
2023/01/10 03:36:07;;;;;;;3.47;1.27;;;16.90;57.10;;;;;;5052620;28;20175;-60
2023/01/10 03:38:33;;;;;;;1.73;1.30;;;16.90;57.10;;;;;;5051463;28;20210;-60
2023/01/10 03:41:06;;;;;;;2.97;1.23;;;16.90;57.00;;;;;;5053571;28;20171;-60
2023/01/10 03:46:27;;;;;;;2.50;1.50;;;16.90;57.10;;;;;;5052000;28;20182;-60
2023/01/10 03:48:52;;;;;;;3.33;1.40;;;16.90;57.10;;;;;;5051985;28;20175;-60
2023/01/10 03:51:18;;;;;;;2.95;1.40;;;16.90;57.00;;;;;;5051822;28;20270;-60
2023/01/10 03:53:43;;;;;;;4.72;1.42;;;16.90;57.10;;;;;;5053231;28;20175;-59
2023/01/10 03:56:12;;;;;;;3.70;1.30;;;16.90;57.00;;;;;;5053484;28;20179;-59
2023/01/10 03:58:38;;;;;;;3.83;1.65;;;16.90;57.00;;;;;;5050261;28;20221;-59
2023/01/10 04:01:03;;;;;;;2.50;1.23;;;16.90;57.10;;;;;;5053293;28;20175;-60
2023/01/10 04:03:29;;;;;;;1.65;1.33;;;16.80;56.90;;;;;;5053171;28;20186;-59
2023/01/10 04:05:54;;;;;;;3.08;1.40;;;16.90;57.00;;;;;;5052380;28;20524;-60
2023/01/10 04:08:20;;;;;;;3.63;1.77;;;16.80;57.00;;;;;;5053341;28;20641;-60
2023/01/10 04:10:48;;;;;;;2.80;1.40;;;16.80;56.90;;;;;;5052840;28;20645;-60
2023/01/10 04:13:13;;;;;;;3.53;1.42;;;16.80;57.00;;;;;;5052479;28;20229;-60
2023/01/10 04:15:39;;;;;;;4.43;1.48;;;16.80;56.90;;;;;;5052818;28;20171;-60
2023/01/10 04:18:04;;;;;;;2.88;1.42;;;16.80;57.00;;;;;;5053132;28;20207;-60
2023/01/10 04:20:30;;;;;;;4.28;1.60;;;16.80;57.00;;;;;;5052156;28;20219;-60
2023/01/10 04:22:55;;;;;;;3.13;1.60;;;16.80;57.60;;;;;;5052633;28;20182;-60
2023/01/10 04:25:21;;;;;;;2.58;1.45;;;16.80;56.90;;;;;;5053066;28;20186;-60
2023/01/10 04:27:50;;;;;;;3.17;1.50;;;16.80;57.00;;;;;;5051820;28;20175;-60
2023/01/10 04:30:17;;;;;;;3.00;1.45;;;16.80;57.00;;;;;;5052896;28;20616;-60
2023/01/10 04:32:42;;;;;;;2.15;1.33;;;16.80;57.00;;;;;;5052633;28;20179;-60
2023/01/10 04:35:08;;;;;;;2.92;1.23;;;16.80;57.00;;;;;;5052347;28;20167;-61
2023/01/10 04:37:33;;;;;;;3.28;1.33;;;16.70;56.90;;;;;;5052944;28;20236;-61
2023/01/10 04:39:59;;;;;;;3.22;1.52;;;16.80;56.90;;;;;;5052992;28;20630;-60
2023/01/10 04:42:24;;;;;;;3.35;1.38;;;16.70;56.90;;;;;;5052189;28;20600;-60
2023/01/10 04:44:50;;;;;;;4.82;1.63;;;16.70;56.90;;;;;;5052410;28;20185;-60
2023/01/10 04:47:15;;;;;;;2.92;1.40;;;16.70;57.50;;;;;;5052618;28;20638;-60
2023/01/10 04:49:41;;;;;;;3.10;1.58;;;16.70;56.90;;;;;;5051872;28;20637;-60
2023/01/10 04:52:06;;;;;;;2.40;1.40;;;16.70;56.90;;;;;;5052720;28;20199;-60
2023/01/10 04:54:32;;;;;;;4.80;1.83;;;16.70;56.90;;;;;;5051734;28;20578;-60
2023/01/10 04:56:57;;;;;;;2.45;1.55;;;16.70;56.90;;;;;;5052563;28;20665;-60
2023/01/10 04:59:23;;;;;;;2.92;1.50;;;16.70;56.90;;;;;;5051370;28;20171;-60
2023/01/10 05:01:49;;;;;;;3.67;1.60;;;16.70;56.90;;;;;;5051478;28;20229;-61
2023/01/10 05:04:14;;;;;;;2.00;1.42;;;16.70;56.90;;;;;;5052559;28;20179;-61
2023/01/10 05:06:40;;;;;;;2.97;1.20;;;16.70;56.80;;;;;;5052353;28;20175;-61
2023/01/10 05:09:06;;;;;;;5.00;2.25;;;16.70;56.90;;;;;;5052011;28;20603;-61
2023/01/10 05:11:32;;;;;;;2.78;1.40;;;16.70;56.90;;;;;;5055275;28;20656;-60
2023/01/10 05:13:57;;;;;;;5.80;1.73;;;16.60;56.80;;;;;;5056519;28;20183;-61
2023/01/10 05:16:24;;;;;;;3.95;1.42;;;16.60;56.80;;;;;;5055608;28;20214;-61
2023/01/10 05:18:49;;;;;;;4.65;1.45;;;16.60;56.90;;;;;;5055976;28;20254;-60
2023/01/10 05:21:15;;;;;;;4.90;1.65;;;16.60;56.80;;;;;;5056209;28;20628;-60
2023/01/10 05:23:40;;;;;;;2.15;1.50;;;16.60;56.90;;;;;;5055185;28;20171;-60
2023/01/10 05:26:17;;;;;;;2.47;1.42;;;16.60;56.80;;;;;;5056192;28;20262;-61
2023/01/10 05:28:43;;;;;;;3.78;1.45;;;16.60;56.80;;;;;;5055920;28;20232;-60
2023/01/10 05:31:10;;;;;;;2.45;1.20;;;16.60;56.80;;;;;;5055333;28;20179;-60
2023/01/10 05:33:36;;;;;;;2.78;1.30;;;16.60;56.90;;;;;;5054886;28;20210;-61
2023/01/10 05:36:05;;;;;;;2.60;1.33;;;16.60;56.90;;;;;;5056091;28;20203;-61
2023/01/10 05:38:31;;;;;;;4.10;1.60;;;16.60;56.90;;;;;;5054970;28;20677;-61
2023/01/10 05:40:58;;;;;;;2.83;1.45;;;16.60;56.90;;;;;;5055939;28;20179;-61
2023/01/10 05:43:23;;;;;;;2.33;1.55;;;16.60;56.90;;;;;;5055780;28;20672;-60
2023/01/10 05:45:49;;;;;;;3.47;1.60;;;16.60;56.90;;;;;;5054788;28;20179;-61
2023/01/10 05:48:15;;;;;;;4.15;1.60;;;16.60;56.90;;;;;;5055898;28;20661;-60
2023/01/10 05:50:40;;;;;;;3.55;1.60;;;16.60;57.00;;;;;;5055652;28;20751;-60
2023/01/10 05:53:06;;;;;;;3.65;1.35;;;16.60;57.00;;;;;;5055145;28;20179;-60
2023/01/10 05:55:32;;;;;;;2.30;1.25;;;16.60;57.00;;;;;;5055301;28;20546;-60
2023/01/10 05:57:57;;;;;;;3.65;1.63;;;16.60;56.90;;;;;;5054825;28;20291;-60
2023/01/10 06:00:23;;;;;;;2.00;1.40;;;16.50;56.90;;;;;;5055516;28;20170;-60
2023/01/10 06:02:49;;;;;;;3.47;1.90;;;16.50;56.90;;;;;;5055330;28;20183;-59
2023/01/10 06:05:14;;;;;;;3.30;1.85;;;16.50;56.90;;;;;;5054768;28;20596;-61
2023/01/10 06:07:40;;;;;;;5.45;1.92;;;16.50;56.90;;;;;;5055183;28;20721;-60
2023/01/10 06:10:06;;;;;;;2.80;1.95;;;16.50;56.90;;;;;;5055384;28;20178;-60
2023/01/10 06:12:31;;;;;;;5.65;1.63;;;16.50;56.90;;;;;;5054287;28;20179;-61
2023/01/10 06:14:57;;;;;;;4.03;1.55;;;16.50;56.90;;;;;;5055270;28;20229;-60
2023/01/10 06:17:22;;;;;;;4.47;1.90;;;16.50;56.90;;;;;;5055372;28;20207;-60
2023/01/10 06:19:48;;;;;;;4.07;1.80;;;16.50;56.90;;;;;;5054080;28;20207;-60
2023/01/10 06:22:13;;;;;;;3.63;1.73;;;16.50;56.90;;;;;;5054213;28;20233;-61
2023/01/10 06:24:41;;;;;;;3.92;1.30;;;16.50;56.90;;;;;;5054790;28;20195;-61
2023/01/10 06:27:06;;;;;;;2.00;1.50;;;16.50;56.90;;;;;;5054357;28;20180;-61
2023/01/10 06:29:32;;;;;;;3.92;1.50;;;16.50;56.90;;;;;;5054860;28;20181;-61
2023/01/10 06:31:57;;;;;;;1.73;1.20;;;16.40;56.80;;;;;;5054936;28;20179;-61
2023/01/10 06:34:23;;;;;;;2.13;1.33;;;16.40;56.80;;;;;;5054223;28;20179;-62
2023/01/10 06:36:48;;;;;;;3.30;1.15;;;16.40;56.90;;;;;;5054548;28;20245;-62
2023/01/10 06:39:14;;;;;;;3.28;1.52;;;16.40;56.90;;;;;;5054757;28;20179;-62
2023/01/10 06:41:39;;;;;;;3.70;1.73;;;16.40;56.80;;;;;;5053775;28;20163;-62
2023/01/10 06:44:05;;;;;;;2.72;1.52;;;16.40;56.80;;;;;;5054720;28;20228;-61
2023/01/10 06:46:31;;;;;;;3.63;1.75;;;16.40;56.80;;;;;;5054448;28;20228;-61
2023/01/10 06:48:56;;;;;;;3.05;1.35;;;16.40;56.80;;;;;;5054146;28;20634;-61
2023/01/10 06:51:22;;;;;;;2.63;1.48;;;16.40;56.80;;;;;;5054646;28;20264;-61
2023/01/10 06:53:47;;;;;;;3.67;1.70;;;16.40;56.80;;;;;;5054289;28;20624;-61
2023/01/10 06:56:13;;;;;;;2.83;1.65;;;16.40;56.80;;;;;;5053865;28;20167;-61
2023/01/10 06:58:38;;;;;;;3.28;1.70;;;16.40;56.90;;;;;;5053939;28;20284;-61
2023/01/10 07:01:06;;;;;;;2.67;1.70;;;16.40;57.10;;;;;;5054023;28;20258;-61
2023/01/10 07:03:31;;;;;;;4.70;1.83;;;16.40;56.90;;;;;;5054255;28;20190;-61
2023/01/10 07:06:00;;;;;;;3.38;1.60;;;16.40;56.80;;;;;;5054779;28;20175;-62
2023/01/10 07:08:26;;;;;;;4.05;1.98;;;16.50;56.80;;;;;;5053659;28;20186;-61
2023/01/10 07:10:52;;;;;;;3.50;1.63;;;16.50;56.80;;;;;;5053938;28;20183;-61
2023/01/10 07:13:17;;;;;;;3.65;1.38;;;16.50;56.60;;;;;;5054010;28;20594;-61
2023/01/10 07:15:43;;;;;;;2.60;1.38;;;16.60;56.60;;;;;;5052984;28;20687;-61
2023/01/10 07:18:08;;;;;;;2.72;1.65;;;16.60;56.60;;;;;;5053915;28;20203;-60
2023/01/10 07:20:34;;;;;;;3.58;1.77;;;16.60;56.50;;;;;;5053463;28;20226;-59
2023/01/10 07:22:59;;;;;;;5.00;1.85;;;16.60;56.50;;;;;;5052024;28;20178;-59
2023/01/10 07:25:26;;;;;;;4.13;2.08;;;16.60;56.50;;;;;;5053908;28;20178;-58
2023/01/10 07:27:54;;;;;;;3.17;1.55;;;16.60;56.60;;;;;;5053582;28;20624;-58
2023/01/10 07:30:20;;;;;;;4.90;2.42;;;16.50;56.50;;;;;;5053330;28;20178;-59
2023/01/10 07:32:51;;;;;;;5.18;1.83;;;16.50;56.50;;;;;;5053532;28;20179;-59
2023/01/10 07:35:16;;;;;;;3.88;1.73;;;16.50;56.50;;;;;;5053904;28;20242;-60
2023/01/10 07:37:42;;;;;;;3.72;1.55;;;16.50;56.60;;;;;;5052601;28;20290;-71
2023/01/10 07:40:08;;;;;;;5.85;2.15;;;16.50;57.00;;;;;;5054813;28;20613;-73
2023/01/10 07:42:34;;;;;;;5.25;1.70;;;16.50;57.50;;;;;;5053495;28;20646;-69
2023/01/10 07:44:59;;;;;;;4.55;1.75;;;16.50;56.90;;;;;;5052834;28;20207;-72
2023/01/10 07:47:25;;;;;;;6.03;2.35;;;16.60;56.90;;;;;;5053623;28;20214;-69
2023/01/10 07:49:50;;;;;;;6.43;1.65;;;16.60;57.20;;;;;;5053403;28;20199;-66
2023/01/10 07:52:16;;;;;;;5.25;1.80;;;16.60;57.10;;;;;;5052784;28;20186;-65
2023/01/10 07:54:41;;;;;;;6.28;2.08;;;16.60;57.40;;;;;;5053110;28;20182;-66
2023/01/10 07:57:07;;;;;;;3.78;1.80;;;16.60;57.20;;;;;;5053258;28;20207;-66
2023/01/10 07:59:32;;;;;;;3.92;2.10;;;16.60;57.30;;;;;;5052546;28;20179;-67
2023/01/10 08:01:58;;;;;;;3.47;1.70;;;16.60;57.30;;;;;;5053459;28;20183;-67
2023/01/10 08:04:24;;;;;;;5.10;1.80;;;16.60;57.50;;;;;;5052917;28;20535;-66
2023/01/10 08:06:50;;;;;;;5.70;2.58;;;16.60;57.40;;;;;;5052674;28;20218;-66
2023/01/10 08:09:16;;;;;;;8.10;2.03;;;16.60;57.40;;;;;;5053019;28;20744;-65
2023/01/10 08:11:42;;;;;;;3.35;1.73;;;16.60;57.40;;;;;;5052320;28;20191;-66
2023/01/10 08:14:07;;;;;;;7.00;2.08;;;16.60;57.40;;;;;;5053283;28;20179;-70
2023/01/10 08:16:33;;;;;;;4.00;1.67;;;16.50;57.30;;;;;;5052729;28;20179;-70
2023/01/10 08:18:58;;;;;;;6.22;2.20;;;16.60;58.50;;;;;;5052341;28;20265;-69
2023/01/10 08:21:24;;;;;;;7.97;2.42;;;16.50;57.80;;;;;;5052646;28;20306;-69
2023/01/10 08:23:50;;;;;;;8.95;2.30;;;16.50;57.60;;;;;;5052550;28;20175;-70
2023/01/10 08:26:16;;;;;;;4.70;1.80;;;16.50;57.40;;;;;;5052417;28;20183;-70
2023/01/10 08:28:42;;;;;;;6.05;2.25;;;16.40;57.40;;;;;;5052638;28;20186;-70
2023/01/10 08:31:08;;;;;;;4.95;2.20;;;16.40;57.30;;;;;;5052818;28;20175;-71
2023/01/10 08:33:33;;;;;;;7.95;2.53;;;16.40;57.30;;;;;;5051779;28;20181;-71
2023/01/10 08:35:59;;;;;;;3.58;2.03;;;16.40;57.30;;;;;;5052726;28;20180;-71
2023/01/10 08:38:24;;;;;;;6.03;2.10;;;16.40;57.30;;;;;;5052598;28;20207;-71
2023/01/10 08:40:50;;;;;;;4.28;1.88;;;16.30;57.40;;;;;;5051611;28;20186;-71
2023/01/10 08:43:15;;;;;;;6.55;2.38;;;16.30;57.30;;;;;;5052706;28;20175;-70
2023/01/10 08:45:41;;;;;;;3.97;1.63;;;16.40;57.30;;;;;;5056419;28;20175;-72
2023/01/10 08:48:08;;;;;;;5.35;1.98;;;16.40;57.30;;;;;;5058704;28;20179;-71
2023/01/10 08:50:33;;;;;;;5.55;2.15;;;16.50;57.30;;;;;;5059143;28;20175;-70
2023/01/10 08:52:59;;;;;;;5.55;1.83;;;16.50;57.20;;;;;;5059245;28;20179;-70
2023/01/10 08:55:25;;;;;;;5.80;2.17;;;16.50;57.20;;;;;;5058559;28;20171;-70
2023/01/10 08:57:50;;;;;;;6.90;2.40;;;16.60;56.90;;;;;;5059172;28;20214;-71
2023/01/10 09:00:16;;;;;;;7.72;2.28;;;16.60;56.90;;;;;;5059443;28;20250;-70
2023/01/10 09:02:42;;;;;;;4.07;1.70;;;16.60;56.80;;;;;;5058096;28;20601;-71
2023/01/10 09:05:08;;;;;;;7.18;2.20;;;16.60;56.70;;;;;;5059359;28;20171;-71
2023/01/10 09:07:33;;;;;;;5.40;2.60;;;16.50;56.70;;;;;;5058836;28;20181;-71
2023/01/10 09:09:59;;;;;;;8.20;2.28;;;16.50;56.80;;;;;;5058467;28;20262;-70
2023/01/10 09:15:23;;;;;;;6.22;2.00;;;16.60;57.00;;;;;;5035610;28;20181;-69
2023/01/10 09:17:51;;;;;;;3.53;1.88;;;16.60;57.00;;;;;;5058843;28;20689;-69
2023/01/10 09:20:17;;;;;;;5.93;2.22;;;16.70;56.90;;;;;;5058938;28;20222;-69
2023/01/10 09:22:42;;;;;;;6.13;1.77;;;16.70;56.80;;;;;;5058241;28;20249;-69
2023/01/10 09:25:08;;;;;;;4.70;1.80;;;16.80;56.80;;;;;;5059195;28;20175;-70
2023/01/10 09:27:33;;;;;;;5.35;2.15;;;16.80;56.70;;;;;;5058758;28;20175;-71
2023/01/10 09:29:59;;;;;;;4.25;1.90;;;16.80;56.70;;;;;;5058741;28;20171;-71
2023/01/10 09:32:25;;;;;;;7.55;2.30;;;16.80;56.70;;;;;;5059265;28;20225;-71
2023/01/10 09:34:50;;;;;;;5.03;1.85;;;16.80;56.60;;;;;;5058809;28;20179;-70
2023/01/10 09:37:16;;;;;;;5.75;2.38;;;16.70;56.60;;;;;;5058180;28;20740;-69
2023/01/10 09:39:42;;;;;;;4.97;1.98;;;16.70;56.60;;;;;;5058894;28;20262;-69
2023/01/10 09:42:30;;;;;;;4.40;1.80;;;16.70;56.60;;;;;;5059025;28;20179;-70
2023/01/10 09:45:45;;;;;;;3.60;2.03;;;16.70;56.70;;;;;;5056845;28;20174;-70
2023/01/10 09:48:38;;;;;;;3.38;1.60;;;16.80;56.60;;;;;;5039232;28;20266;-71
2023/01/10 09:51:31;;;;;;;5.15;2.22;;;16.80;56.60;;;;;;5056870;28;20207;-70
2023/01/10 09:54:02;;;;;;;5.68;2.20;;;16.80;56.50;;;;;;5058945;28;20257;-70
2023/01/10 09:56:27;;;;;;;6.63;2.30;;;16.80;56.50;;;;;;5057604;28;20552;-69
2023/01/10 09:58:53;;;;;;;4.75;2.00;;;16.80;56.50;;;;;;5053564;28;20211;-70
2023/01/10 10:01:21;;;;;;;6.28;2.20;;;16.80;56.50;;;;;;5054467;28;20660;-70
2023/01/10 10:03:58;;;;;;;4.28;1.73;;;16.80;56.50;;;;;;5055322;28;20668;-70
2023/01/10 10:06:24;;;;;;;4.32;2.08;;;16.80;56.50;;;;;;5054600;28;20175;-69
2023/01/10 10:08:49;;;;;;;5.50;1.70;;;16.70;56.50;;;;;;5054908;28;20187;-67
2023/01/10 10:11:27;;;;;;;5.32;2.30;;;16.70;56.60;;;;;;5052895;28;20202;-69
2023/01/10 10:14:19;;;;;;;5.75;2.15;;;16.80;56.50;;;;;;5052957;28;20262;-69
2023/01/10 10:17:13;;;;;;;6.95;2.15;;;16.80;56.50;;;;;;5051818;28;20171;-69
2023/01/10 10:20:29;;;;;;;7.25;2.08;;;16.90;56.50;;;;;;5051069;28;20182;-68
2023/01/10 10:23:04;;;;;;;5.40;2.50;;;16.90;56.40;;;;;;5043919;28;20540;-70
2023/01/10 10:25:36;;;;;;;5.18;1.80;;;16.90;56.40;;;;;;5052559;28;20166;-70
2023/01/10 10:28:12;;;;;;;6.55;2.22;;;16.90;56.50;;;;;;5054172;28;20190;-69
2023/01/10 10:30:52;;;;;;;5.93;2.28;;;16.90;56.40;;;;;;5053090;28;20254;-71
2023/01/10 10:33:24;;;;;;;3.08;1.63;;;16.90;56.40;;;;;;5053208;28;20586;-69
2023/01/10 10:35:59;;;;;;;3.35;1.77;;;16.90;56.50;;;;;;5054590;28;20535;-69
2023/01/10 10:38:28;;;;;;;4.65;2.00;;;16.90;56.50;;;;;;5053828;28;20214;-70
2023/01/10 10:40:54;;;;;;;5.05;2.35;;;16.90;56.50;;;;;;5052562;28;20595;-70
2023/01/10 10:43:22;;;;;;;4.35;2.10;;;16.90;56.50;;;;;;5053448;28;20248;-68
2023/01/10 10:45:54;;;;;;;4.35;2.15;;;17.00;56.60;;;;;;5053301;28;20225;-70
2023/01/10 10:48:28;;;;;;;5.50;2.10;;;17.00;56.50;;;;;;5052799;28;20186;-69
2023/01/10 10:51:24;;;;;;;5.15;1.95;;;17.00;56.40;;;;;;5054507;28;20176;-70
2023/01/10 10:53:50;;;;;;;6.80;2.03;;;17.10;56.50;;;;;;5053563;28;20305;-70
2023/01/10 10:56:18;;;;;;;7.07;2.22;;;17.00;56.30;;;;;;5054479;28;20212;-69
2023/01/10 10:58:45;;;;;;;5.97;2.10;;;17.00;56.30;;;;;;5053076;28;20578;-70
2023/01/10 11:01:14;;;;;;;4.38;2.15;;;17.00;56.30;;;;;;5052449;28;20210;-70
2023/01/10 11:03:44;;;;;;;5.40;1.95;;;17.00;56.50;;;;;;5052962;28;20175;-71
2023/01/10 11:06:10;;;;;;;4.72;2.17;;;17.00;56.70;;;;;;5053156;28;20254;-68
2023/01/10 11:08:45;;;;;;;4.03;1.90;;;17.00;56.70;;;;;;5051488;28;20255;-69
2023/01/10 11:11:24;;;;;;;6.55;2.15;;;17.00;56.70;;;;;;5053268;28;20189;-69
2023/01/10 11:13:53;;;;;;;2.50;1.63;;;16.90;56.70;;;;;;5052716;28;20179;-70
2023/01/10 11:16:24;;;;;;;4.50;2.05;;;16.90;56.80;;;;;;5052431;28;20179;-68
2023/01/10 11:19:16;;;;;;;5.40;2.20;;;16.90;56.90;;;;;;5053796;28;20214;-67
2023/01/10 11:21:44;;;;;;;3.40;1.90;;;16.90;57.00;;;;;;5052719;28;20269;-69
2023/01/10 11:24:22;;;;;;;3.50;1.75;;;16.90;57.00;;;;;;5052810;28;20179;-68
2023/01/10 11:26:47;;;;;;;5.43;2.20;;;16.80;57.00;;;;;;5053667;28;20174;-73
2023/01/10 11:29:21;;;;;;;5.57;2.60;;;16.80;57.00;;;;;;5053239;28;20185;-68
2023/01/10 11:31:46;;;;;;;5.28;2.10;;;16.80;57.00;;;;;;5052506;28;20190;-71
2023/01/10 11:34:32;;;;;;;6.85;2.25;;;16.80;57.10;;;;;;5053850;28;20179;-71
2023/01/10 11:37:17;;;;;;;5.28;1.92;;;16.80;56.90;;;;;;5051594;28;20213;-69
2023/01/10 11:39:43;;;;;;;5.45;2.20;;;16.80;56.90;;;;;;5053876;28;20178;-68
2023/01/10 11:42:23;;;;;;;5.65;2.38;;;16.70;57.10;;;;;;5053878;28;20182;-74
2023/01/10 11:44:49;;;;;;;4.72;1.80;;;16.70;57.40;;;;;;5051526;28;20198;-72
2023/01/10 11:47:19;;;;;;;3.83;1.80;;;16.70;57.40;;;;;;5052454;28;20260;-70
2023/01/10 11:49:45;;;;;;;6.88;2.15;;;16.60;57.00;;;;;;5052564;28;20183;-74
2023/01/10 11:52:42;;;;;;;4.38;2.08;;;16.70;57.20;;;;;;5053500;28;20634;-70
2023/01/10 11:55:07;;;;;;;4.97;2.15;;;16.70;57.30;;;;;;5049001;28;20183;-73
2023/01/10 11:57:33;;;;;;;4.55;1.80;;;16.70;57.30;;;;;;5051079;28;20661;-72
2023/01/10 12:00:05;;;;;;;5.45;2.20;;;16.70;57.20;;;;;;5052993;28;20167;-75
2023/01/10 12:02:40;;;;;;;4.07;1.83;;;16.70;57.30;;;;;;5051878;28;20640;-72
2023/01/10 12:05:10;;;;;;;5.68;2.20;;;16.70;57.20;;;;;;5051703;28;20182;-73
2023/01/10 12:08:08;;;;;;;4.70;1.80;;;16.80;57.10;;;;;;5053871;28;20536;-73
2023/01/10 12:10:34;;;;;;;5.38;2.25;;;16.80;57.00;;;;;;5052693;28;20199;-72
2023/01/10 12:13:20;;;;;;;4.18;1.90;;;16.90;57.00;;;;;;5052754;28;20198;-71
2023/01/10 12:15:48;;;;;;;5.30;1.98;;;16.90;57.00;;;;;;5051788;28;20582;-71
2023/01/10 12:18:16;;;;;;;6.38;2.20;;;16.90;57.00;;;;;;5051200;28;20302;-65
2023/01/10 12:20:49;;;;;;;4.38;1.80;;;16.80;57.10;;;;;;5050342;28;20222;-70
2023/01/10 12:23:20;;;;;;;5.78;2.17;;;16.80;57.20;;;;;;5053104;28;20652;-68
2023/01/10 12:25:45;;;;;;;4.28;2.05;;;16.80;57.30;;;;;;5051990;28;20235;-70
2023/01/10 12:28:22;;;;;;;3.35;1.77;;;16.80;57.80;;;;;;5052005;28;20171;-69
2023/01/10 12:30:50;;;;;;;5.30;1.73;;;16.90;57.20;;;;;;5051531;28;20218;-70
2023/01/10 12:33:28;;;;;;;6.47;2.50;;;16.90;57.20;;;;;;5050927;28;20582;-70
2023/01/10 12:36:22;;;;;;;4.53;1.85;;;16.90;57.30;;;;;;5052555;28;20179;-69
2023/01/10 12:39:04;;;;;;;6.03;2.33;;;17.10;57.30;;;;;;5051174;28;20217;-69
2023/01/10 12:44:45;;;;;;;6.53;2.30;;;17.40;56.70;;;;;;5060451;28;20174;-70
2023/01/10 12:47:48;;;;;;;5.38;1.92;;;17.70;56.40;;;;;;5068409;28;20185;-71
2023/01/10 12:50:26;;;;;;;3.33;1.90;;;17.90;56.00;;;;;;5066392;28;20316;-71
2023/01/10 12:53:10;;;;;;;4.05;2.08;;;18.10;55.70;;;;;;5034994;28;20637;-71
2023/01/10 12:55:39;;;;;;;2.97;1.92;;;18.30;55.30;;;;;;5051595;28;20194;-70
2023/01/10 12:58:05;;;;;;;3.00;1.80;;;18.40;55.10;;;;;;5051999;28;20214;-71
2023/01/10 13:00:33;;;;;;;3.33;1.88;;;18.50;55.00;;;;;;5054034;28;20628;-71
2023/01/10 13:02:59;;;;;;;5.00;1.67;;;18.60;54.80;;;;;;5054806;28;20242;-71
2023/01/10 13:05:26;;;;;;;3.92;2.00;;;18.60;54.50;;;;;;5072553;28;20177;-71
2023/01/10 13:07:55;;;;;;;3.13;1.85;;;18.60;54.60;;;;;;5071729;28;20205;-70
2023/01/10 13:10:21;;;;;;;4.00;1.50;;;18.70;54.60;;;;;;5054344;28;20178;-70
2023/01/10 13:12:54;;;;;;;5.03;1.80;;;18.70;54.40;;;;;;5070991;28;20178;-70
2023/01/10 13:15:31;;;;;;;5.03;1.55;;;18.60;54.40;;;;;;5052132;28;20167;-70
2023/01/10 13:18:02;;;;;;;4.20;1.67;;;18.70;54.40;;;;;;5050979;28;20308;-71